createdAt,value
2023-03-06T00:00:40.591Z,88.96
2023-03-06T00:03:07.342Z,88.08
2023-03-06T00:05:34.158Z,88.69
2023-03-06T00:08:01.239Z,90.27
2023-03-06T00:10:30.671Z,91.15
2023-03-06T00:13:00.993Z,87.43
2023-03-06T00:15:28.278Z,89.16
2023-03-06T00:17:55.954Z,89.80
2023-03-06T00:20:23.559Z,89.59
2023-03-06T00:22:51.761Z,88.69
2023-03-06T00:25:20.890Z,89.22
2023-03-06T00:27:49.436Z,87.47
2023-03-06T00:30:24.774Z,84.65
2023-03-06T00:32:53.093Z,85.26
2023-03-06T00:35:19.791Z,86.74
2023-03-06T00:37:46.645Z,86.54
2023-03-06T00:40:18.759Z,87.16
2023-03-06T00:42:45.676Z,87.89
2023-03-06T00:45:14.030Z,88.03
2023-03-06T00:47:41.387Z,88.95
2023-03-06T00:50:08.925Z,90.57
2023-03-06T00:52:36.115Z,89.67
2023-03-06T00:55:02.860Z,90.31
2023-03-06T00:57:30.615Z,91.31
2023-03-06T00:59:58.515Z,89.82
2023-03-06T01:02:25.755Z,89.59
2023-03-06T01:04:53.382Z,89.11
2023-03-06T01:07:21.037Z,88.55
2023-03-06T01:09:48.108Z,87.95
2023-03-06T01:12:15.044Z,88.35
2023-03-06T01:14:41.743Z,86.77
2023-03-06T01:17:08.469Z,85.92
2023-03-06T01:19:35.423Z,86.63
2023-03-06T01:22:02.494Z,87.58
2023-03-06T01:24:29.409Z,88.67
2023-03-06T01:26:56.054Z,89.87
2023-03-06T01:29:22.768Z,92.64
2023-03-06T01:31:49.444Z,96.29
2023-03-06T01:34:16.159Z,99.44
2023-03-06T01:36:42.892Z,100.00
2023-03-06T01:39:10.039Z,100.00
2023-03-06T01:41:36.963Z,100.00
2023-03-06T01:44:03.757Z,100.00
2023-03-06T01:46:34.062Z,100.00
2023-03-06T01:49:05.877Z,100.00
2023-03-06T01:51:38.282Z,100.00
2023-03-06T01:54:10.658Z,100.00
2023-03-06T01:56:39.868Z,100.00
2023-03-06T01:59:07.566Z,100.00
2023-03-06T02:01:34.682Z,100.00
2023-03-06T02:04:01.825Z,100.00
2023-03-06T02:06:28.752Z,100.00
2023-03-06T02:08:56.220Z,100.00
2023-03-06T02:11:24.793Z,100.00
2023-03-06T02:13:53.908Z,100.00
2023-03-06T02:16:26.889Z,100.00
2023-03-06T02:18:53.781Z,100.00
2023-03-06T02:21:25.593Z,100.00
2023-03-06T02:24:50.873Z,100.00
2023-03-06T02:27:19.037Z,100.00
2023-03-06T02:29:46.595Z,100.00
2023-03-06T02:32:13.386Z,100.00
2023-03-06T02:34:40.030Z,100.00
2023-03-06T02:37:11.019Z,100.00
2023-03-06T02:39:48.937Z,100.00
2023-03-06T02:42:21.745Z,100.00
2023-03-06T02:44:49.938Z,100.00
2023-03-06T02:47:16.705Z,100.00
2023-03-06T02:49:43.362Z,100.00
2023-03-06T02:52:10.113Z,100.00
2023-03-06T02:54:36.835Z,100.00
2023-03-06T02:57:03.634Z,100.00
2023-03-06T02:59:30.527Z,100.00
2023-03-06T03:01:57.202Z,100.00
2023-03-06T03:04:23.936Z,100.00
2023-03-06T03:06:50.654Z,100.00
2023-03-06T03:09:17.529Z,100.00
2023-03-06T03:11:44.732Z,100.00
2023-03-06T03:14:11.468Z,100.00
2023-03-06T03:16:39.210Z,100.00
2023-03-06T03:19:06.110Z,100.00
2023-03-06T03:21:32.837Z,100.00
2023-03-06T03:23:59.927Z,100.00
2023-03-06T03:26:26.806Z,100.00
2023-03-06T03:28:53.442Z,100.00
2023-03-06T03:31:20.756Z,100.00
2023-03-06T03:33:47.756Z,100.00
2023-03-06T03:36:14.498Z,100.00
2023-03-06T03:38:41.497Z,100.00
2023-03-06T03:41:08.140Z,100.00
2023-03-06T03:43:34.966Z,100.00
2023-03-06T03:46:01.693Z,100.00
2023-03-06T03:48:28.386Z,100.00
2023-03-06T03:50:55.310Z,100.00
2023-03-06T03:53:22.215Z,100.00
2023-03-06T03:55:49.197Z,100.00
2023-03-06T03:58:15.999Z,100.00
2023-03-06T04:00:43.354Z,100.00
2023-03-06T04:03:10.306Z,100.00
2023-03-06T04:05:37.026Z,100.00
2023-03-06T04:08:04.384Z,100.00
2023-03-06T04:10:31.187Z,100.00
2023-03-06T04:12:57.917Z,100.00
2023-03-06T04:15:24.663Z,100.00
2023-03-06T04:17:52.995Z,100.00
2023-03-06T04:20:19.831Z,100.00
2023-03-06T04:22:47.693Z,100.00
2023-03-06T04:25:14.804Z,100.00
2023-03-06T04:27:43.158Z,100.00
2023-03-06T04:30:10.531Z,100.00
2023-03-06T04:32:37.452Z,100.00
2023-03-06T04:35:05.401Z,100.00
2023-03-06T04:37:32.768Z,100.00
2023-03-06T04:40:00.958Z,100.00
2023-03-06T04:42:32.206Z,100.00
2023-03-06T04:44:59.549Z,100.00
2023-03-06T04:47:26.407Z,100.00
2023-03-06T04:49:53.104Z,100.00
2023-03-06T04:52:19.843Z,100.00
2023-03-06T04:54:46.611Z,100.00
2023-03-06T04:57:14.263Z,100.00
2023-03-06T04:59:41.183Z,100.00
2023-03-06T05:02:08.322Z,100.00
2023-03-06T05:04:36.566Z,100.00
2023-03-06T05:07:03.542Z,100.00
2023-03-06T05:09:30.216Z,100.00
2023-03-06T05:11:56.875Z,100.00
2023-03-06T05:14:24.045Z,100.00
2023-03-06T05:16:50.829Z,100.00
2023-03-06T05:19:17.541Z,100.00
2023-03-06T05:21:44.180Z,100.00
2023-03-06T05:24:10.838Z,100.00
2023-03-06T05:26:37.955Z,100.00
2023-03-06T05:29:04.617Z,100.00
2023-03-06T05:31:32.858Z,100.00
2023-03-06T05:34:00.767Z,100.00
2023-03-06T05:36:28.017Z,100.00
2023-03-06T05:38:54.935Z,100.00
2023-03-06T05:41:21.861Z,100.00
2023-03-06T05:43:48.603Z,100.00
2023-03-06T05:46:15.299Z,100.00
2023-03-06T05:48:42.119Z,100.00
2023-03-06T05:51:11.011Z,100.00
2023-03-06T05:53:37.960Z,100.00
2023-03-06T05:56:09.718Z,100.00
2023-03-06T05:58:37.778Z,100.00
2023-03-06T06:01:13.194Z,100.00
2023-03-06T06:03:40.600Z,100.00
2023-03-06T06:06:13.617Z,100.00
2023-03-06T06:08:41.572Z,100.00
2023-03-06T06:11:10.270Z,100.00
2023-03-06T06:13:38.501Z,100.00
2023-03-06T06:16:15.807Z,100.00
2023-03-06T06:18:43.533Z,100.00
2023-03-06T06:21:13.283Z,100.00
2023-03-06T06:23:39.983Z,100.00
2023-03-06T06:26:08.311Z,100.00
2023-03-06T06:28:35.428Z,100.00
2023-03-06T06:31:12.423Z,100.00
2023-03-06T06:33:42.029Z,100.00
2023-03-06T06:36:21.066Z,100.00
2023-03-06T06:38:49.247Z,100.00
2023-03-06T06:41:50.656Z,100.00
2023-03-06T06:44:08.690Z,100.00
2023-03-06T06:49:22.985Z,100.00
2023-03-06T06:51:49.812Z,100.00
2023-03-06T06:54:16.652Z,100.00
2023-03-06T06:56:43.359Z,100.00
2023-03-06T06:59:16.619Z,100.00
2023-03-06T07:01:44.947Z,97.56
2023-03-06T07:04:15.063Z,86.41
2023-03-06T07:06:43.036Z,88.60
2023-03-06T07:09:10.371Z,92.34
2023-03-06T07:11:38.504Z,92.63
2023-03-06T07:14:05.732Z,89.33
2023-03-06T07:16:32.438Z,84.05
2023-03-06T07:18:59.077Z,80.46
2023-03-06T07:21:25.951Z,78.53
2023-03-06T07:23:56.102Z,83.15
2023-03-06T07:26:23.797Z,78.16
2023-03-06T07:28:53.592Z,75.60
2023-03-06T07:31:22.547Z,75.50
2023-03-06T07:33:50.436Z,78.01
2023-03-06T07:36:18.429Z,80.12
2023-03-06T07:38:46.040Z,78.56
2023-03-06T07:41:15.288Z,76.25
2023-03-06T07:43:46.604Z,76.10
2023-03-06T07:46:14.485Z,73.14
2023-03-06T07:48:42.234Z,72.39
2023-03-06T07:51:14.674Z,69.90
2023-03-06T07:53:41.870Z,73.37
2023-03-06T07:56:09.510Z,76.72
2023-03-06T07:58:37.855Z,75.20
2023-03-06T08:01:13.109Z,71.65
2023-03-06T08:03:40.219Z,78.01
2023-03-06T08:06:18.920Z,73.91
2023-03-06T08:08:47.110Z,73.71
2023-03-06T08:11:15.685Z,73.48
2023-03-06T08:13:42.955Z,73.28
2023-03-06T08:16:11.117Z,69.17
2023-03-06T08:18:40.342Z,68.33
2023-03-06T08:21:10.672Z,67.37
2023-03-06T08:23:38.074Z,66.30
2023-03-06T08:26:08.238Z,66.68
2023-03-06T08:28:35.337Z,65.03
2023-03-06T08:31:31.712Z,64.08
2023-03-06T08:34:01.732Z,63.64
2023-03-06T08:36:28.967Z,63.32
2023-03-06T08:38:56.192Z,63.20
2023-03-06T08:41:23.224Z,65.82
2023-03-06T08:43:50.751Z,62.76
2023-03-06T08:46:18.988Z,63.19
2023-03-06T08:48:47.888Z,62.05
2023-03-06T08:51:15.304Z,62.11
2023-03-06T08:53:43.972Z,62.26
2023-03-06T08:56:23.139Z,63.02
2023-03-06T08:58:50.586Z,61.06
2023-03-06T09:01:20.956Z,59.94
2023-03-06T09:03:47.838Z,57.96
2023-03-06T09:06:15.514Z,56.20
2023-03-06T09:08:44.016Z,55.18
2023-03-06T09:11:12.165Z,55.16
2023-03-06T09:13:40.032Z,55.61
2023-03-06T09:16:07.516Z,57.13
2023-03-06T09:18:34.814Z,55.54
2023-03-06T09:21:02.016Z,56.74
2023-03-06T09:23:28.698Z,57.23
2023-03-06T09:25:56.916Z,56.57
2023-03-06T09:28:24.411Z,56.45
2023-03-06T09:30:51.922Z,55.34
2023-03-06T09:33:19.418Z,54.39
2023-03-06T09:35:56.838Z,53.84
2023-03-06T09:38:28.135Z,53.76
2023-03-06T09:40:58.370Z,52.75
2023-03-06T09:43:33.466Z,52.27
2023-03-06T09:46:00.345Z,52.05
2023-03-06T09:49:15.443Z,51.58
2023-03-06T09:52:10.201Z,51.98
2023-03-06T09:54:46.227Z,53.36
2023-03-06T09:57:27.113Z,51.61
2023-03-06T09:59:56.843Z,51.16
2023-03-06T10:02:41.209Z,51.37
2023-03-06T10:05:15.883Z,50.43
2023-03-06T10:08:01.993Z,50.29
2023-03-06T10:10:40.794Z,50.45
2023-03-06T10:13:14.085Z,50.42
2023-03-06T10:15:44.129Z,50.85
2023-03-06T10:18:12.560Z,49.01
2023-03-06T10:21:18.511Z,49.89
2023-03-06T10:23:57.424Z,51.46
2023-03-06T10:26:27.035Z,50.37
2023-03-06T10:29:14.711Z,49.86
2023-03-06T10:31:49.548Z,48.08
2023-03-06T10:34:19.359Z,49.80
2023-03-06T10:36:46.062Z,50.76
2023-03-06T10:39:21.970Z,49.14
2023-03-06T10:41:49.941Z,49.00
2023-03-06T10:44:18.204Z,51.54
2023-03-06T10:46:48.036Z,52.14
2023-03-06T10:49:26.975Z,48.73
2023-03-06T10:51:59.850Z,47.96
2023-03-06T10:54:28.261Z,46.40
2023-03-06T10:56:54.965Z,47.00
2023-03-06T10:59:25.455Z,47.01
2023-03-06T11:02:15.058Z,47.25
2023-03-06T11:04:46.730Z,47.11
2023-03-06T11:07:18.937Z,46.44
2023-03-06T11:09:59.259Z,49.11
2023-03-06T11:12:40.611Z,46.48
2023-03-06T11:15:10.117Z,46.65
2023-03-06T11:17:48.680Z,47.09
2023-03-06T11:20:18.626Z,47.57
2023-03-06T11:22:56.815Z,47.03
2023-03-06T11:25:29.878Z,46.51
2023-03-06T11:28:28.309Z,46.77
2023-03-06T11:31:02.602Z,47.52
2023-03-06T11:33:49.957Z,47.92
2023-03-06T11:36:26.708Z,48.21
2023-03-06T11:38:54.746Z,47.48
2023-03-06T11:41:35.816Z,46.79
2023-03-06T11:44:11.448Z,46.83
2023-03-06T11:46:43.999Z,44.87
2023-03-06T11:49:22.853Z,44.84
2023-03-06T11:51:59.734Z,45.22
2023-03-06T11:54:26.649Z,44.55
2023-03-06T11:57:10.956Z,45.92
2023-03-06T11:59:56.040Z,46.60
2023-03-06T12:06:09.774Z,44.91
2023-03-06T12:08:50.095Z,44.76
2023-03-06T12:11:22.845Z,44.89
2023-03-06T12:14:14.313Z,44.67
2023-03-06T12:16:43.982Z,44.94
2023-03-06T12:19:21.406Z,44.91
2023-03-06T12:22:00.831Z,46.27
2023-03-06T12:24:36.764Z,46.17
2023-03-06T12:27:13.386Z,46.36
2023-03-06T12:29:57.964Z,45.89
2023-03-06T12:32:35.359Z,45.37
2023-03-06T12:35:47.922Z,45.28
2023-03-06T12:38:42.086Z,45.65
2023-03-06T12:41:26.670Z,45.25
2023-03-06T12:44:17.863Z,45.80
2023-03-06T12:46:49.867Z,46.14
2023-03-06T12:49:33.332Z,45.47
2023-03-06T12:52:04.410Z,46.47
2023-03-06T12:54:38.744Z,46.49
2023-03-06T12:57:08.535Z,46.91
2023-03-06T12:59:44.654Z,47.88
2023-03-06T13:02:29.564Z,47.99
2023-03-06T13:05:21.664Z,47.26
2023-03-06T13:07:57.465Z,47.94
2023-03-06T13:10:30.536Z,47.69
2023-03-06T13:12:57.303Z,47.49
2023-03-06T13:15:42.201Z,47.99
2023-03-06T13:18:24.019Z,48.03
2023-03-06T13:20:57.652Z,48.10
2023-03-06T13:23:51.712Z,48.35
2023-03-06T13:26:24.568Z,47.18
2023-03-06T13:28:54.273Z,46.70
2023-03-06T13:31:31.012Z,46.19
2023-03-06T13:34:01.872Z,46.28
2023-03-06T13:36:33.857Z,47.43
2023-03-06T13:39:02.707Z,48.12
2023-03-06T13:41:32.438Z,48.42
2023-03-06T13:44:01.668Z,48.36
2023-03-06T13:46:38.082Z,49.13
2023-03-06T13:49:11.159Z,48.92
2023-03-06T13:51:48.195Z,48.25
2023-03-06T13:54:26.750Z,48.61
2023-03-06T13:57:15.282Z,49.33
2023-03-06T14:00:12.431Z,50.02
2023-03-06T14:02:54.968Z,49.61
2023-03-06T14:05:22.740Z,49.44
2023-03-06T14:08:06.034Z,49.49
2023-03-06T14:10:35.523Z,49.72
2023-03-06T14:13:14.227Z,49.17
2023-03-06T14:15:48.535Z,49.28
2023-03-06T14:18:51.281Z,49.42
2023-03-06T14:21:55.090Z,49.28
2023-03-06T14:24:40.620Z,48.77
2023-03-06T14:27:07.459Z,49.07
2023-03-06T14:29:34.489Z,48.56
2023-03-06T14:32:02.394Z,48.96
2023-03-06T14:34:33.278Z,49.27
2023-03-06T14:37:08.317Z,49.53
2023-03-06T14:39:42.013Z,50.13
2023-03-06T14:42:27.042Z,49.36
2023-03-06T14:45:17.951Z,48.83
2023-03-06T14:47:51.501Z,49.32
2023-03-06T14:50:32.792Z,48.86
2023-03-06T14:53:15.925Z,48.50
2023-03-06T14:55:50.523Z,48.50
2023-03-06T14:58:35.730Z,47.62
2023-03-06T15:01:06.723Z,47.66
2023-03-06T15:03:53.130Z,47.29
2023-03-06T15:06:24.873Z,47.23
2023-03-06T15:09:14.555Z,47.48
2023-03-06T15:12:01.246Z,48.01
2023-03-06T15:14:34.732Z,47.54
2023-03-06T15:17:27.625Z,48.44
2023-03-06T15:19:56.795Z,47.78
2023-03-06T15:22:31.896Z,48.14
2023-03-06T15:25:27.473Z,47.87
2023-03-06T15:27:55.679Z,48.41
2023-03-06T15:30:30.588Z,48.39
2023-03-06T15:33:26.165Z,48.81
2023-03-06T15:35:58.431Z,49.37
2023-03-06T15:38:31.712Z,49.51
2023-03-06T15:41:00.786Z,49.76
2023-03-06T15:43:32.226Z,49.72
2023-03-06T15:46:00.722Z,49.76
2023-03-06T15:48:28.402Z,49.86
2023-03-06T15:50:55.301Z,49.87
2023-03-06T15:53:22.083Z,50.44
2023-03-06T15:55:50.196Z,50.35
2023-03-06T15:58:21.528Z,50.88
2023-03-06T16:00:48.248Z,51.33
2023-03-06T16:03:15.002Z,51.19
2023-03-06T16:05:41.715Z,51.42
2023-03-06T16:08:10.943Z,51.85
2023-03-06T16:10:40.841Z,52.16
2023-03-06T16:13:12.715Z,52.84
2023-03-06T16:15:44.939Z,53.30
2023-03-06T16:18:12.592Z,53.29
2023-03-06T16:20:40.302Z,53.54
2023-03-06T16:23:10.465Z,53.71
2023-03-06T16:25:43.226Z,54.88
2023-03-06T16:28:14.759Z,58.45
2023-03-06T16:30:43.673Z,61.59
2023-03-06T16:33:11.830Z,63.42
2023-03-06T16:35:39.318Z,66.24
2023-03-06T16:38:06.074Z,67.82
2023-03-06T16:40:41.149Z,69.27
2023-03-06T16:43:09.187Z,71.41
2023-03-06T16:45:38.798Z,73.48
2023-03-06T16:48:06.510Z,75.52
2023-03-06T16:50:40.974Z,78.90
2023-03-06T16:53:08.337Z,81.87
2023-03-06T16:55:35.047Z,83.17
2023-03-06T16:58:01.722Z,88.40
2023-03-06T17:00:33.238Z,93.22
2023-03-06T17:03:01.671Z,94.85
2023-03-06T17:05:29.033Z,99.45
2023-03-06T17:07:56.349Z,100.00
2023-03-06T17:10:26.345Z,100.00
2023-03-06T17:12:54.267Z,100.00
2023-03-06T17:15:21.399Z,100.00
2023-03-06T17:17:48.789Z,100.00
2023-03-06T17:20:15.804Z,100.00
2023-03-06T17:22:42.722Z,100.00
2023-03-06T17:25:09.718Z,100.00
2023-03-06T17:27:36.543Z,100.00
2023-03-06T17:30:04.559Z,100.00
2023-03-06T17:32:32.858Z,100.00
2023-03-06T17:34:59.871Z,100.00
2023-03-06T17:37:26.662Z,100.00
2023-03-06T17:39:53.487Z,100.00
2023-03-06T17:42:20.226Z,100.00
2023-03-06T17:44:48.020Z,100.00
2023-03-06T17:47:14.901Z,100.00
2023-03-06T17:49:41.603Z,100.00
2023-03-06T17:52:08.352Z,100.00
2023-03-06T17:54:35.986Z,100.00
2023-03-06T17:57:05.487Z,100.00
2023-03-06T17:59:36.847Z,100.00
2023-03-06T18:02:04.261Z,100.00
2023-03-06T18:04:31.149Z,100.00
2023-03-06T18:06:58.596Z,100.00
2023-03-06T18:09:25.646Z,100.00
2023-03-06T18:11:52.647Z,100.00
2023-03-06T18:14:19.518Z,100.00
2023-03-06T18:16:46.733Z,100.00
2023-03-06T18:19:13.810Z,100.00
2023-03-06T18:21:40.750Z,100.00
2023-03-06T18:24:08.664Z,100.00
2023-03-06T18:26:36.053Z,100.00
2023-03-06T18:29:04.646Z,100.00
2023-03-06T18:31:37.264Z,100.00
2023-03-06T18:34:10.882Z,100.00
2023-03-06T18:36:38.127Z,100.00
2023-03-06T18:39:09.703Z,100.00
2023-03-06T18:41:36.559Z,100.00
2023-03-06T18:44:03.809Z,100.00
2023-03-06T18:46:38.054Z,100.00
2023-03-06T18:49:06.264Z,100.00
2023-03-06T18:51:33.440Z,100.00
2023-03-06T18:54:01.712Z,100.00
2023-03-06T18:56:28.788Z,100.00
2023-03-06T18:58:56.053Z,100.00
2023-03-06T19:01:23.291Z,100.00
2023-03-06T19:03:50.276Z,100.00
2023-03-06T19:06:17.364Z,100.00
2023-03-06T19:08:44.774Z,100.00
2023-03-06T19:11:16.393Z,100.00
2023-03-06T19:13:43.808Z,100.00
2023-03-06T19:16:21.483Z,100.00
2023-03-06T19:18:48.438Z,100.00
2023-03-06T19:21:20.835Z,100.00
2023-03-06T19:23:47.522Z,100.00
2023-03-06T19:26:14.915Z,100.00
2023-03-06T19:28:42.674Z,100.00
2023-03-06T19:31:20.659Z,100.00
2023-03-06T19:33:49.601Z,100.00
2023-03-06T19:36:18.214Z,100.00
2023-03-06T19:38:45.396Z,100.00
2023-03-06T19:41:13.825Z,100.00
2023-03-06T19:43:42.133Z,100.00
2023-03-06T19:46:15.113Z,100.00
2023-03-06T19:48:42.660Z,100.00
2023-03-06T19:51:10.287Z,100.00
2023-03-06T19:53:37.188Z,100.00
2023-03-06T19:56:20.055Z,100.00
2023-03-06T19:58:46.958Z,100.00
2023-03-06T20:01:17.093Z,100.00
2023-03-06T20:03:44.135Z,100.00
2023-03-06T20:06:14.016Z,100.00
2023-03-06T20:08:40.672Z,100.00
2023-03-06T20:11:07.330Z,100.00
2023-03-06T20:13:34.070Z,100.00
2023-03-06T20:16:04.163Z,100.00
2023-03-06T20:18:30.906Z,100.00
2023-03-06T20:23:57.029Z,100.00
2023-03-06T20:26:25.465Z,100.00
2023-03-06T20:28:52.177Z,100.00
2023-03-06T20:31:26.743Z,100.00
2023-03-06T20:33:55.180Z,100.00
2023-03-06T20:36:30.396Z,100.00
2023-03-06T20:38:59.864Z,100.00
2023-03-06T20:41:28.738Z,100.00
2023-03-06T20:43:55.915Z,100.00
2023-03-06T20:46:23.226Z,100.00
2023-03-06T20:48:52.338Z,100.00
2023-03-06T20:51:28.790Z,100.00
2023-03-06T20:53:56.521Z,100.00
2023-03-06T20:56:29.225Z,100.00
2023-03-06T20:58:56.942Z,100.00
2023-03-06T21:01:29.131Z,100.00
2023-03-06T21:03:57.065Z,100.00
2023-03-06T21:06:24.664Z,100.00
2023-03-06T21:08:51.465Z,100.00
2023-03-06T21:11:18.702Z,100.00
2023-03-06T21:13:45.350Z,100.00
2023-03-06T21:16:15.313Z,100.00
2023-03-06T21:18:42.381Z,100.00
2023-03-06T21:21:23.717Z,100.00
2023-03-06T21:23:51.181Z,100.00
2023-03-06T21:26:22.866Z,100.00
2023-03-06T21:28:50.116Z,100.00
2023-03-06T21:31:19.174Z,100.00
2023-03-06T21:33:46.182Z,100.00
2023-03-06T21:36:13.253Z,100.00
2023-03-06T21:38:40.507Z,100.00
2023-03-06T21:41:24.151Z,100.00
2023-03-06T21:43:55.340Z,100.00
2023-03-06T21:46:23.691Z,100.00
2023-03-06T21:48:50.434Z,100.00
2023-03-06T21:51:19.626Z,100.00
2023-03-06T21:53:47.841Z,100.00
2023-03-06T21:56:17.289Z,100.00
2023-03-06T21:58:44.974Z,100.00
2023-03-06T22:01:15.751Z,100.00
2023-03-06T22:03:42.530Z,100.00
2023-03-06T22:06:11.691Z,100.00
2023-03-06T22:08:38.785Z,100.00
2023-03-06T22:11:10.804Z,100.00
2023-03-06T22:13:38.061Z,100.00
2023-03-06T22:16:05.553Z,100.00
2023-03-06T22:18:33.276Z,100.00
2023-03-06T22:21:00.118Z,100.00
2023-03-06T22:23:27.013Z,100.00
2023-03-06T22:25:53.685Z,100.00
2023-03-06T22:28:20.551Z,100.00
2023-03-06T22:30:47.231Z,100.00
2023-03-06T22:33:14.151Z,100.00
2023-03-06T22:35:40.878Z,100.00
2023-03-06T22:38:07.641Z,100.00
2023-03-06T22:40:34.447Z,100.00
2023-03-06T22:43:01.220Z,100.00
2023-03-06T22:45:27.902Z,100.00
2023-03-06T22:48:02.322Z,100.00
2023-03-06T22:50:35.861Z,100.00
2023-03-06T22:53:02.535Z,100.00
2023-03-06T22:55:29.213Z,100.00
2023-03-06T22:57:57.407Z,100.00
2023-03-06T23:00:24.819Z,100.00
2023-03-06T23:02:51.497Z,100.00
2023-03-06T23:05:18.942Z,100.00
2023-03-06T23:07:57.332Z,100.00
2023-03-06T23:10:24.505Z,100.00
2023-03-06T23:12:55.973Z,100.00
2023-03-06T23:15:27.953Z,100.00
2023-03-06T23:17:58.588Z,100.00
2023-03-06T23:20:31.206Z,100.00
2023-03-06T23:23:01.582Z,100.00
2023-03-06T23:25:33.179Z,100.00
2023-03-06T23:28:00.702Z,100.00
2023-03-06T23:30:31.770Z,100.00
2023-03-06T23:33:15.146Z,100.00
2023-03-06T23:35:44.348Z,100.00
2023-03-06T23:38:13.885Z,100.00
2023-03-06T23:40:43.818Z,100.00
2023-03-06T23:43:10.509Z,100.00
2023-03-06T23:45:37.240Z,100.00
2023-03-06T23:48:09.805Z,100.00
2023-03-06T23:50:39.808Z,100.00
2023-03-06T23:53:18.560Z,100.00
2023-03-06T23:55:47.927Z,100.00
2023-03-06T23:58:16.291Z,100.00
